Latest Coastal Weather Observations for Williamtown

IDN60701

Issued at 10:41 pm EST Thursday 2 July 2015 (issued every 10 minutes, with the page automatically refreshed every 10 minutes)

About coastal observations | Map of coastal stations | Coastal observations for NSW | Marine services | Other Formats
Station Details ID: 061078 Name: WILLIAMTOWN RAAF Lat: -32.79 Lon: 151.84 Height: 9.0 m
Data from the previous 72 hours. | See also: Recent months at Williamtown
Date/Time
EST
Temp

°C
Wind Pressure Rain
since 9am
mm
Weather Cloud Vis
km
Sea
Height
m
Swell
Dir
 
Speed
knots
Gust
knots
hPa Trend Height
m
Period
s
Dir
02/10:30pm 10.9 WSW 12 16 1023.3 - 0.0 - - 10 - - - -
02/10:00pm 10.5 WSW 10 16 1022.8 - 0.0 - - 10 - - - -
02/09:30pm 10.9 WSW 11 18 1022.6 - 0.0 - - 10 - - - -
02/09:00pm 11.4 WSW 11 14 1022.2 R 0.0 - - 10 - - - -
02/08:30pm 10.0 W 8 13 1021.7 - 0.0 - Partly cloudy 10 - - - -
02/08:00pm 10.2 WNW 9 10 1021.4 - 0.0 - - 10 - - - -
02/07:30pm 11.2 W 12 16 1021.1 - 0.0 - - 10 - - - -
02/07:00pm 11.6 WNW 15 22 1020.3 - 0.0 - - 10 - - - -
02/06:30pm 11.7 WNW 13 18 1020.0 - 0.0 - - 10 - - - -
02/06:00pm 11.6 WNW 12 16 1019.6 R 0.0 - Mostly clear 10 - - - -
02/05:30pm 11.7 WNW 12 16 1019.0 - 0.0 - - 10 - - - -
02/05:00pm 12.3 WNW 12 16 1018.5 - 0.0 - - 10 - - - -
02/04:30pm 13.5 WNW 15 19 1018.6 - 0.0 - - 10 - - - -
02/04:00pm 14.1 WNW 14 20 1018.4 - 0.0 - - 10 - - - -
02/03:30pm 14.5 WNW 16 22 1018.2 - 0.0 - - 10 - - - -
02/03:00pm 14.6 WNW 17 23 1018.0 R 0.0 Fine Mostly clear 40 - - - -
02/02:30pm 14.7 WNW 19 25 1018.1 - 0.0 - - 10 - - - -
02/02:00pm 14.7 WNW 18 26 1018.3 - 0.0 - - 10 - - - -
02/01:30pm 14.4 WNW 19 25 1018.1 - 0.0 - - 10 - - - -
02/12:30pm 13.8 WNW 18 26 1018.9 - 0.0 - - 10 - - - -
02/12:00pm 13.0 WNW 17 22 1019.3 F 0.0 Fine Mostly clear 40 - - - -
02/11:30am 12.8 WNW 17 21 1020.2 - 0.0 - - 10 - - - -
02/11:00am 11.9 WNW 17 24 1020.7 - 0.0 - - 10 - - - -
02/10:30am 10.8 WNW 15 22 1020.9 - 0.0 - - 10 - - - -
02/10:00am 10.4 WNW 17 23 1021.1 - 0.0 - - 10 - - - -
02/09:30am 8.2 WNW 15 19 1021.2 - 0.0 - - 10 - - - -
02/09:00am 7.9 WNW 15 20 1021.2 F 0.0 Fine Partly cloudy 40 - - - -
02/08:30am 7.7 WNW 17 22 1021.0 - 0.0 - - 10 - - - -
02/08:00am 7.5 W 14 19 1021.1 - 0.0 - - 10 - - - -
02/07:30am 7.2 W 12 18 1021.3 - 0.0 - - 10 - - - -
02/07:00am 6.9 W 9 15 1021.1 - 0.0 - - 10 - - - -
02/06:30am 6.9 WNW 12 20 1021.1 - 0.0 - - 10 - - - -
02/06:00am 7.1 WNW 12 17 1020.8 F 0.0 Fine Partly cloudy 40 - - - -
02/05:30am 7.2 W 15 20 1020.8 - 0.0 - - 10 - - - -
02/05:00am 7.2 WNW 15 21 1020.3 - 0.0 - - 10 - - - -
02/04:30am 7.5 W 12 18 1020.1 - 0.0 - - 10 - - - -
02/04:00am 6.7 W 8 10 1020.6 - 0.0 - - 10 - - - -
02/03:30am 7.2 WNW 9 12 1020.8 - 0.0 - - 10 - - - -
02/03:00am 7.6 WNW 12 16 1021.2 F 0.0 - - 10 - - - -
02/02:30am 7.5 WNW 14 17 1021.2 - 0.0 - - 10 - - - -
02/02:00am 7.7 WNW 13 16 1021.2 - 0.0 - - 10 - - - -
02/01:30am 7.6 NW 9 12 1021.4 - 0.0 - - 10 - - - -
02/01:00am 7.5 WNW 9 11 1021.7 - 0.0 - - 10 - - - -
02/12:30am 8.0 WNW 10 12 1022.1 - 0.0 - - 10 - - - -
02/12:00am 8.0 WNW 8 10 1022.5 S 0.0 - - 10 - - - -
 
Date/Time
EST
Temp

°C
Wind Pressure Rain
since 9am
mm
Weather Cloud Vis
km
Sea
Height
m
Swell
Dir
 
Speed
knots
Gust
knots
hPa Trend Height
m
Period
s
Dir
01/11:30pm 8.0 WNW 7 8 1022.4 - 0.0 - - 10 - - - -
01/11:00pm 8.8 WNW 7 8 1022.6 - 0.0 - - 10 - - - -
01/10:30pm 10.0 NW 7 8 1022.7 - 0.0 - - 10 - - - -
01/10:24pm 10.6 NW 7 9 1022.7 - 0.0 - - 10 - - - -
01/10:06pm 9.7 NW 6 7 1022.9 - 0.0 - Partly cloudy 6 - - - -
01/10:00pm 9.5 NW 7 7 1022.9 - 0.0 - Partly cloudy 7 - - - -
01/09:54pm 9.2 NW 6 7 1022.9 - 0.0 - Partly cloudy 8 - - - -
01/09:32pm 9.3 NW 5 6 1022.9 - 0.0 - - 6 - - - -
01/09:30pm 9.4 NW 6 7 1023.0 - 0.0 - - 7 - - - -
01/09:08pm 9.3 NW 7 8 1023.3 - 0.0 - - 8 - - - -
01/09:00pm 9.3 NW 6 7 1023.3 R 0.0 - - 7 - - - -
01/08:49pm 9.1 WNW 4 5 1023.3 - 0.0 - - 6 - - - -
01/08:30pm 8.6 W 4 4 1023.1 - 0.0 - - 10 - - - -
01/08:00pm 9.5 NNW 2 4 1022.9 - 0.0 - - 10 - - - -
01/07:30pm 9.5 NW 4 5 1023.1 - 0.0 - - 10 - - - -
01/07:00pm 9.7 CALM 0 0 1023.1 - 0.0 - - 10 - - - -
01/06:30pm 10.1 CALM 0 0 1022.7 - 0.0 - - 10 - - - -
01/06:00pm 11.3 CALM 0 0 1022.5 F 0.0 - - 10 - - - -
01/05:30pm 12.6 S 2 4 1022.3 - 0.0 - Mostly clear 10 - - - -
01/05:00pm 13.9 SSE 4 4 1022.2 - 0.0 - Mostly clear 10 - - - -
01/04:30pm 14.9 SSE 6 6 1022.2 - 0.0 - Mostly clear 10 - - - -
01/04:00pm 15.9 SSE 6 7 1022.2 - 0.0 - Mostly clear 10 - - - -
01/03:30pm 16.0 SSE 6 7 1022.4 - 0.0 - Mostly clear 10 - - - -
01/03:00pm 15.9 S 8 10 1022.7 F 0.0 Fine Partly cloudy 30 - - - -
01/02:30pm 16.7 S 5 9 1022.8 - 0.0 - Mostly clear 10 - - - -
01/02:00pm 16.6 SW 6 8 1023.3 - 0.0 - Mostly clear 10 - - - -
01/01:30pm 16.1 SW 7 11 1023.5 - 0.0 - Mostly clear 10 - - - -
01/01:00pm 16.2 SSW 7 9 1023.7 - 0.0 - Mostly clear 10 - - - -
01/12:30pm 15.5 SW 5 9 1024.4 - 0.0 - Mostly clear 10 - - - -
01/12:00pm 15.3 WSW 6 7 1025.0 S 0.0 Fine Mostly cloudy 30 - - - -
01/11:30am 15.1 WSW 7 10 1025.3 - 0.0 - Mostly clear 10 - - - -
01/11:00am 15.7 WSW 7 9 1025.5 - 0.0 - Partly cloudy 10 - - - -
01/10:30am 15.6 WSW 7 10 1025.7 - 0.0 - Mostly clear 10 - - - -
01/10:00am 14.6 WNW 7 9 1025.8 - 0.0 - Mostly clear 10 - - - -
01/09:30am 13.9 W 6 8 1026.0 - 0.0 - Mostly clear 10 - - - -
01/09:00am 14.1 W 7 9 1025.9 F 2.4 Distant precip. Partly cloudy 25 - - - -
01/08:30am 14.2 WNW 7 8 1025.7 - 2.4 - Mostly clear 10 - - - -
01/08:00am 12.4 WNW 7 10 1025.5 - 2.4 - Mostly clear 10 - - - -
01/07:30am 11.4 WNW 8 9 1025.5 - 2.2 - Mostly clear 10 - - - -
01/07:00am 11.5 WNW 6 8 1025.2 - 2.2 - Mostly clear 10 - - - -
01/06:30am 12.0 WNW 9 13 1025.1 - 2.2 Showers Partly cloudy 8 - - - -
01/06:00am 11.7 WNW 5 6 1024.8 F 1.2 Distant precip. Mostly cloudy 20 - - - -
01/05:30am 11.6 NW 7 9 1024.5 - 1.2 - Partly cloudy 10 - - - -
01/05:00am 11.4 WNW 6 8 1024.4 - 0.2 - Partly cloudy 10 - - - -
01/04:30am 11.3 WNW 6 8 1024.4 - 0.2 - Partly cloudy 10 - - - -
01/04:00am 11.5 NW 8 10 1024.4 - 0.2 - Partly cloudy 10 - - - -
01/03:30am 11.2 WNW 6 8 1024.5 - 0.2 - Cloudy 10 - - - -
01/03:00am 11.3 NW 7 9 1024.7 F 0.2 - Cloudy 10 - - - -
01/02:30am 11.2 NW 5 7 1024.6 - 0.2 - - 10 - - - -
01/02:00am 11.1 WNW 5 6 1024.5 - 0.2 - - 10 - - - -
01/01:30am 11.5 NW 7 8 1024.7 - 0.2 - Partly cloudy 10 - - - -
01/01:00am 11.4 W 5 6 1024.8 - 0.2 - Partly cloudy 7 - - - -
01/12:30am 11.7 NW 5 7 1024.9 - 0.2 - Partly cloudy 9 - - - -
01/12:00am 11.7 WNW 6 7 1025.6 F 0.0 - Cloudy 9 - - - -
 
Date/Time
EST
Temp

°C
Wind Pressure Rain
since 9am
mm
Weather Cloud Vis
km
Sea
Height
m
Swell
Dir
 
Speed
knots
Gust
knots
hPa Trend Height
m
Period
s
Dir
30/11:30pm 11.7 NW 6 7 1025.8 - 0.0 - - 10 - - - -
30/11:00pm 11.7 NW 6 7 1025.5 - 0.0 - Partly cloudy 10 - - - -
30/10:30pm 11.9 NNW 7 7 1025.8 - 0.0 - Partly cloudy 10 - - - -
30/10:00pm 11.6 NW 5 6 1025.9 - 0.0 - Partly cloudy 10 - - - -
30/09:30pm 11.5 NNW 6 7 1026.4 - 0.0 - - 10 - - - -
30/09:00pm 10.7 NW 6 7 1026.5 F 0.0 - Cloudy 10 - - - -
30/08:30pm 10.5 CALM 0 4 1026.5 - 0.0 - - 10 - - - -
30/08:00pm 11.0 CALM 0 0 1026.5 - 0.0 - - 10 - - - -
30/07:30pm 11.1 CALM 0 0 1026.4 - 0.0 - - 10 - - - -
30/07:00pm 11.8 WNW 3 4 1026.5 - 0.0 - - 10 - - - -
30/06:30pm 11.1 WNW 4 6 1026.6 - 0.0 - Partly cloudy 10 - - - -
30/06:00pm 11.4 NNW 3 5 1026.4 F 0.0 - Mostly cloudy 10 - - - -
30/05:30pm 12.4 NE 4 6 1026.4 - 0.0 - - 10 - - - -
30/05:00pm 12.9 NE 5 7 1026.2 - 0.0 - Partly cloudy 10 - - - -
30/04:30pm 13.7 N 4 5 1025.9 - 0.0 - Partly cloudy 10 - - - -
30/04:00pm 14.1 WNW 4 5 1025.9 - 0.0 - - 10 - - - -
30/03:30pm 14.0 NW 6 7 1025.9 - 0.0 - - 10 - - - -
30/03:00pm 14.1 WNW 7 9 1025.9 F 0.0 Haze Partly cloudy 25 - - - -
30/02:30pm 14.1 NW 6 8 1025.9 - 0.0 - - 10 - - - -
30/02:00pm 14.0 NW 5 6 1026.0 - 0.0 - Partly cloudy 10 - - - -
30/01:30pm 13.2 NW 6 7 1026.5 - 0.0 - - 10 - - - -
30/01:00pm 13.6 W 5 7 1026.8 - 0.0 - - 10 - - - -
30/12:30pm 14.3 WNW 5 9 1027.5 - 0.0 - Partly cloudy 10 - - - -
30/12:00pm 12.9 WNW 7 9 1028.2 F 0.0 Haze Partly cloudy 20 - - - -
30/11:30am 11.5 NW 15 18 1028.9 - 0.0 - Partly cloudy 10 - - - -
30/11:00am 10.9 WNW 14 17 1029.3 - 0.0 - Mostly cloudy 8 - - - -
30/10:30am 10.6 NW 12 15 1029.6 - 0.0 Mist Mostly cloudy 2 - - - -
30/10:00am 9.7 NW 9 12 1029.6 - 0.0 - Mostly cloudy 0.9 - - - -
30/09:40am 9.7 NW 9 12 1029.7 - 0.0 Mist Mostly cloudy 2 - - - -
30/09:30am 9.3 NW 9 11 1029.6 - 0.0 Fog Mostly cloudy 0.7 - - - -
30/09:00am 8.8 NW 9 12 1029.7 F 0.0 Fog Mostly cloudy 0.6 - - - -
30/08:30am 8.6 NW 8 9 1029.6 - 0.0 Fog Mostly cloudy 0.3 - - - -
30/08:00am 8.3 WNW 7 10 1029.5 - 0.0 - Mostly cloudy 0.3 - - - -
30/07:30am 7.9 NW 7 10 1029.1 - 0.0 Fog Mostly cloudy 0.3 - - - -
30/07:00am 7.8 NW 7 9 1029.1 - 0.0 - Mostly cloudy 0.3 - - - -
30/06:30am 7.8 NW 8 10 1028.9 - 0.0 Fog Mostly cloudy 0.4 - - - -
30/06:00am 7.9 NW 9 11 1028.8 F 0.0 Fog Mostly cloudy 0.3 - - - -
30/05:30am 8.2 NW 5 6 1028.5 - 0.0 - Cloudy 0.2 - - - -
30/05:00am 8.3 NW 6 7 1028.5 - 0.0 - Cloudy 0.2 - - - -
30/04:30am 8.3 WNW 7 8 1028.5 - 0.0 - Cloudy 0.1 - - - -
30/04:00am 7.6 WNW 7 8 1028.6 - 0.0 - Cloudy 0.1 - - - -
30/03:46am 7.3 WNW 4 8 1028.7 - 0.0 - Cloudy 0.9 - - - -
30/03:37am 7.1 CALM 0 0 1028.7 - 0.0 - Cloudy 1 - - - -
30/03:30am 7.0 CALM 0 0 1028.8 - 0.0 - Cloudy 0.3 - - - -
30/03:00am 7.2 WNW 2 4 1028.8 F 0.0 - Mostly cloudy 0.3 - - - -
30/02:45am 7.0 WNW 4 5 1029.0 - 0.0 - Partly cloudy 1 - - - -
30/02:30am 6.9 NW 5 5 1029.0 - 0.0 - Partly cloudy 2 - - - -
30/02:26am 7.1 NW 5 5 1029.0 - 0.0 - Partly cloudy 0.9 - - - -
30/02:12am 7.0 NW 5 7 1028.9 - 0.0 - Partly cloudy 0.3 - - - -
30/02:06am 6.7 NW 5 6 1028.9 - 0.0 - Partly cloudy 0.8 - - - -
30/02:03am 6.5 NW 5 6 1029.0 - 0.0 - Partly cloudy 5 - - - -
30/02:00am 6.5 NW 4 5 1029.0 - 0.0 - - 10 - - - -
30/01:30am 6.5 CALM 0 0 1029.1 - 0.0 - - 10 - - - -
30/01:23am 6.4 CALM 0 0 1029.1 - 0.0 - - 10 - - - -
30/01:05am 6.9 CALM 0 0 1029.1 - 0.0 - - 6 - - - -
30/01:00am 6.9 CALM 0 0 1029.2 - 0.0 - - 9 - - - -
30/12:30am 6.9 CALM 0 0 1029.6 - 0.0 - - 10 - - - -
30/12:00am 7.3 CALM 0 0 1029.9 F 0.0 - - 10 - - - -
 
Date/Time
EST
Temp

°C
Wind Pressure Rain
since 9am
mm
Weather Cloud Vis
km
Sea
Height
m
Swell
Dir
 
Speed
knots
Gust
knots
hPa Trend Height
m
Period
s
Dir
29/11:30pm 7.7 CALM 0 0 1030.1 - 0.0 - - 10 - - - -
29/11:00pm 8.1 CALM 0 0 1030.4 - 0.0 - - 10 - - - -

Other Formats:

Comma delimited format used in spreadsheet applications
http://www.bom.gov.au/fwo/IDN60701/IDN60701.94776.axf

JavaScript Object Notation format (JSON) in row-major order
http://www.bom.gov.au/fwo/IDN60701/IDN60701.94776.json